Time;durP1;ratioP1;P1;durP2;ratioP2;P2;SDS_P1;SDS_P2;PMS_P1;PMS_P2;Temp;Humidity;BMP_temperature;BMP_pressure;BME280_temperature;BME280_humidity;BME280_pressure;Samples;Min_cycle;Max_cycle;Signal;HPM_P1;HPM_P2
2023/01/30 00:00:05;;;;;;;46.78;32.83;;;;;;;4.53;100.00;101838.94;5285446;28;20030;-88
2023/01/30 00:02:37;;;;;;;47.60;30.70;;;;;;;4.55;100.00;101832.63;5280662;28;20064;-87
2023/01/30 00:05:08;;;;;;;43.20;29.25;;;;;;;4.62;100.00;101832.34;5275052;28;20060;-87
2023/01/30 00:07:39;;;;;;;43.65;31.10;;;;;;;4.61;100.00;101830.59;5286498;28;20072;-87
2023/01/30 00:10:11;;;;;;;47.53;33.83;;;;;;;4.58;100.00;101810.50;5279077;28;20377;-89
2023/01/30 00:12:42;;;;;;;45.67;31.30;;;;;;;4.62;100.00;101808.53;5269283;28;20021;-89
2023/01/30 00:15:13;;;;;;;42.38;32.63;;;;;;;4.67;100.00;101814.44;5276434;28;20072;-89
2023/01/30 00:17:45;;;;;;;46.28;31.13;;;;;;;4.71;100.00;101813.34;5248577;28;20196;-89
2023/01/30 00:20:16;;;;;;;44.60;29.88;;;;;;;4.71;100.00;101786.91;5258081;28;20500;-89
2023/01/30 00:22:47;;;;;;;43.60;32.60;;;;;;;4.74;100.00;101792.03;5276568;28;20132;-89
2023/01/30 00:25:18;;;;;;;48.42;29.98;;;;;;;4.78;100.00;101790.09;5272304;28;20107;-89
2023/01/30 00:27:50;;;;;;;42.88;30.15;;;;;;;4.79;100.00;101782.06;5272621;28;20017;-89
2023/01/30 00:30:21;;;;;;;38.17;28.30;;;;;;;4.79;100.00;101797.94;5259708;28;20040;-89
2023/01/30 00:32:54;;;;;;;40.10;29.42;;;;;;;4.83;100.00;101817.97;5276885;28;20028;-89
2023/01/30 00:35:29;;;;;;;40.50;28.38;;;;;;;4.85;100.00;101802.03;5277654;28;20021;-89
2023/01/30 00:38:01;;;;;;;43.03;30.67;;;;;;;4.81;100.00;101796.06;5260791;28;20143;-89
2023/01/30 00:40:32;;;;;;;42.05;29.92;;;;;;;4.86;100.00;101778.16;5277031;28;20579;-89
2023/01/30 00:48:44;;;;;;;40.22;29.50;;;;;;;4.95;100.00;101797.13;5285410;28;20033;-89
2023/01/30 00:51:15;;;;;;;43.80;30.55;;;;;;;4.91;100.00;101772.66;5291648;28;20055;-89
2023/01/30 00:53:46;;;;;;;45.88;29.80;;;;;;;4.98;100.00;101783.72;5283429;28;20033;-88
2023/01/30 00:56:17;;;;;;;44.15;30.33;;;;;;;4.97;100.00;101784.66;5278157;28;20036;-89
2023/01/30 00:58:49;;;;;;;45.58;30.45;;;;;;;5.01;100.00;101787.03;5277354;28;20033;-88
2023/01/30 01:01:20;;;;;;;45.25;30.75;;;;;;;4.98;100.00;101781.94;5281117;28;20025;-88
2023/01/30 01:03:51;;;;;;;46.85;28.95;;;;;;;5.00;100.00;101772.13;5256804;28;20049;-88
2023/01/30 01:06:23;;;;;;;37.85;29.70;;;;;;;5.03;100.00;101776.38;5278863;28;20056;-90
2023/01/30 01:08:54;;;;;;;40.88;31.10;;;;;;;5.03;100.00;101771.97;5278985;28;20394;-88
2023/01/30 01:11:25;;;;;;;45.28;30.40;;;;;;;5.08;100.00;101783.16;5275757;28;20017;-89
2023/01/30 01:13:59;;;;;;;45.38;31.65;;;;;;;5.07;100.00;101770.00;5280488;28;20021;-89
2023/01/30 01:16:32;;;;;;;46.67;31.38;;;;;;;5.12;100.00;101770.63;5268403;28;20033;-89
2023/01/30 01:19:04;;;;;;;37.88;30.02;;;;;;;5.16;100.00;101763.38;5250953;28;20022;-88
2023/01/30 01:21:35;;;;;;;41.35;28.67;;;;;;;5.13;100.00;101761.72;5266182;28;20087;-89
2023/01/30 01:24:11;;;;;;;44.13;28.77;;;;;;;5.18;100.00;101766.78;5250544;28;20029;-89
2023/01/30 01:26:43;;;;;;;41.28;28.88;;;;;;;5.17;100.00;101758.00;5280095;28;20029;-89
2023/01/30 01:29:16;;;;;;;38.58;31.10;;;;;;;5.21;100.00;101762.16;5272506;28;20036;-88
2023/01/30 01:31:47;;;;;;;40.53;29.33;;;;;;;5.23;100.00;101751.50;5271884;28;20029;-88
2023/01/30 01:34:18;;;;;;;39.13;29.65;;;;;;;5.29;100.00;101744.09;5276835;28;20120;-89
2023/01/30 01:36:50;;;;;;;41.03;28.73;;;;;;;5.32;100.00;101743.03;5258021;28;20152;-89
2023/01/30 01:39:22;;;;;;;41.38;31.23;;;;;;;5.35;100.00;101744.66;5249399;28;20128;-89
2023/01/30 01:45:23;;;;;;;40.20;29.15;;;;;;;5.38;100.00;101744.47;5269753;28;20041;-89
2023/01/30 01:48:35;;;;;;;42.03;31.83;;;;;;;5.45;100.00;101729.97;5257153;28;20041;-88
2023/01/30 01:51:37;;;;;;;39.75;29.17;;;;;;;5.39;100.00;101731.16;5195209;28;20442;-88
2023/01/30 01:54:15;;;;;;;36.17;28.13;;;;;;;5.40;100.00;101721.44;5195042;28;20034;-88
2023/01/30 01:56:47;;;;;;;41.08;29.27;;;;;;;5.39;100.00;101706.50;5261311;28;20040;-89
2023/01/30 01:59:31;;;;;;;39.55;29.50;;;;;;;5.44;100.00;101702.66;5280991;28;20537;-89
2023/01/30 02:02:08;;;;;;;38.03;27.73;;;;;;;5.44;100.00;101701.81;5281410;28;20107;-88
2023/01/30 02:05:05;;;;;;;40.90;28.00;;;;;;;5.47;100.00;101697.19;5289059;28;20060;-89
2023/01/30 02:07:49;;;;;;;39.23;29.27;;;;;;;5.47;100.00;101699.00;5282202;28;20401;-89
2023/01/30 02:10:25;;;;;;;40.50;30.70;;;;;;;5.49;100.00;101707.69;5291922;28;20035;-88
2023/01/30 02:12:57;;;;;;;36.72;28.48;;;;;;;5.48;100.00;101703.34;5288031;28;20021;-88
2023/01/30 02:15:28;;;;;;;38.38;30.08;;;;;;;5.57;100.00;101696.66;5282263;28;20036;-88
2023/01/30 02:18:00;;;;;;;40.83;28.70;;;;;;;5.57;100.00;101694.84;5288221;28;20044;-88
2023/01/30 02:20:49;;;;;;;38.20;27.38;;;;;;;5.59;100.00;101700.94;5250247;28;20144;-89
2023/01/30 02:23:30;;;;;;;34.83;27.52;;;;;;;5.58;100.00;101672.75;5268641;28;20044;-89
2023/01/30 02:26:20;;;;;;;38.80;27.67;;;;;;;5.59;100.00;101669.19;5281331;28;20026;-89
2023/01/30 02:29:07;;;;;;;38.47;25.08;;;;;;;5.61;100.00;101671.69;5285032;28;20028;-89
2023/01/30 02:32:03;;;;;;;38.63;28.10;;;;;;;5.59;100.00;101674.47;5264092;28;20514;-88
2023/01/30 02:34:41;;;;;;;38.72;26.67;;;;;;;5.63;100.00;101662.75;5285616;28;20044;-89
2023/01/30 02:37:43;;;;;;;35.20;28.67;;;;;;;5.62;100.00;101654.91;5275013;28;20103;-88
2023/01/30 02:40:38;;;;;;;40.40;28.42;;;;;;;5.63;100.00;101661.91;5245648;28;20041;-88
2023/01/30 02:43:33;;;;;;;40.25;26.95;;;;;;;5.61;100.00;101669.06;5260951;28;20464;-89
2023/01/30 02:46:23;;;;;;;40.78;31.77;;;;;;;5.61;100.00;101667.28;5278478;28;20994;-89
2023/01/30 02:48:58;;;;;;;42.20;31.88;;;;;;;5.59;100.00;101652.41;5284461;28;20397;-89
2023/01/30 02:51:33;;;;;;;38.88;27.98;;;;;;;5.62;100.00;101662.84;5285332;28;20119;-88
2023/01/30 02:54:06;;;;;;;43.87;30.47;;;;;;;5.57;100.00;101652.50;5284965;28;20029;-89
2023/01/30 02:56:51;;;;;;;43.05;30.75;;;;;;;5.58;100.00;101658.69;5285424;28;20013;-90
2023/01/30 02:59:34;;;;;;;38.40;29.35;;;;;;;5.61;100.00;101653.19;5276212;28;20020;-89
2023/01/30 03:02:34;;;;;;;43.47;32.08;;;;;;;5.63;100.00;101659.25;5279914;28;20083;-90
2023/01/30 03:05:17;;;;;;;41.80;31.15;;;;;;;5.62;100.00;101645.16;5225960;28;20083;-90
2023/01/30 03:08:23;;;;;;;46.63;34.08;;;;;;;5.62;100.00;101645.16;5280085;28;20545;-90
2023/01/30 03:11:00;;;;;;;42.97;32.10;;;;;;;5.62;100.00;101644.31;5260310;28;20028;-90
2023/01/30 03:13:51;;;;;;;47.55;32.92;;;;;;;5.69;100.00;101648.28;5262748;28;20381;-89
2023/01/30 03:16:38;;;;;;;48.83;30.58;;;;;;;5.65;100.00;101637.03;5264407;28;20033;-90
2023/01/30 03:19:11;;;;;;;;;;;;;;;5.68;100.00;101636.03;5280787;28;20041;-89
2023/01/30 03:21:44;;;;;;;47.00;33.85;;;;;;;5.57;100.00;101622.56;5272909;28;20012;-90
2023/01/30 03:24:16;;;;;;;46.22;34.13;;;;;;;5.56;100.00;101637.59;5277132;28;20116;-89
2023/01/30 03:27:09;;;;;;;49.83;34.28;;;;;;;5.55;100.00;101638.53;5284304;28;20384;-89
2023/01/30 03:29:40;;;;;;;49.85;37.47;;;;;;;5.46;100.00;101629.31;5264916;28;20033;-88
2023/01/30 03:32:12;;;;;;;48.03;37.25;;;;;;;5.47;100.00;101636.34;5263656;28;20032;-88
2023/01/30 03:34:43;;;;;;;53.10;37.58;;;;;;;5.47;100.00;101633.69;5263898;28;20025;-89
2023/01/30 03:37:14;;;;;;;56.03;37.40;;;;;;;5.44;100.00;101625.09;5245052;28;20033;-90
2023/01/30 03:39:46;;;;;;;56.88;38.05;;;;;;;5.42;100.00;101634.91;5256933;28;20662;-89
2023/01/30 03:42:17;;;;;;;56.60;40.17;;;;;;;5.41;100.00;101625.25;5282498;28;20496;-89
2023/01/30 03:44:48;;;;;;;58.05;43.13;;;;;;;5.42;100.00;101622.53;5244775;28;1095688;-89
2023/01/30 03:47:20;;;;;;;59.15;41.05;;;;;;;5.43;100.00;101618.91;5273528;28;20033;-89
2023/01/30 03:49:51;;;;;;;59.25;42.45;;;;;;;5.39;100.00;101627.16;5291846;28;20028;-89
2023/01/30 03:52:22;;;;;;;60.58;39.63;;;;;;;5.46;100.00;101617.91;5279448;28;20028;-89
2023/01/30 03:54:54;;;;;;;53.35;40.42;;;;;;;5.45;100.00;101614.41;5293993;28;20040;-89
2023/01/30 03:57:25;;;;;;;65.57;41.35;;;;;;;5.43;100.00;101618.06;5289347;28;20528;-89
2023/01/30 03:59:56;;;;;;;59.85;39.17;;;;;;;5.45;100.00;101617.06;5282875;28;28821;-89
2023/01/30 04:02:27;;;;;;;57.75;42.05;;;;;;;5.46;100.00;101620.53;5264076;28;20033;-89
2023/01/30 04:04:59;;;;;;;61.35;38.67;;;;;;;5.44;100.00;101619.78;5283923;28;20395;-89
2023/01/30 04:07:30;;;;;;;59.10;36.97;;;;;;;5.49;100.00;101626.50;5283485;28;20125;-89
2023/01/30 04:10:01;;;;;;;55.47;39.80;;;;;;;5.50;100.00;101624.69;5261222;28;20044;-88
2023/01/30 04:12:33;;;;;;;58.20;41.47;;;;;;;5.52;100.00;101620.16;5277026;28;20398;-90
2023/01/30 04:15:04;;;;;;;60.72;36.72;;;;;;;5.55;100.00;101620.00;5284443;28;20025;-88
2023/01/30 04:17:36;;;;;;;56.17;37.85;;;;;;;5.56;100.00;101628.78;5284350;28;20040;-88
2023/01/30 04:20:08;;;;;;;56.28;37.70;;;;;;;5.58;100.00;101618.97;5263905;28;20049;-88
2023/01/30 04:22:39;;;;;;;54.33;36.65;;;;;;;5.60;100.00;101623.22;5273617;28;20876;-88
2023/01/30 04:25:10;;;;;;;52.78;37.17;;;;;;;5.63;100.00;101615.09;5298329;28;20025;-88
2023/01/30 04:27:43;;;;;;;55.70;35.08;;;;;;;5.67;100.00;101608.69;5282579;28;31945;-89
2023/01/30 04:30:14;;;;;;;52.42;34.55;;;;;;;5.69;100.00;101598.00;5303324;28;20036;-89
2023/01/30 04:32:46;;;;;;;44.70;32.58;;;;;;;5.76;100.00;101591.38;5296805;28;20670;-88
2023/01/30 04:35:17;;;;;;;46.60;32.28;;;;;;;5.81;100.00;101596.41;5290565;28;20026;-88
2023/01/30 04:37:48;;;;;;;45.70;30.63;;;;;;;5.87;100.00;101609.25;5286312;28;20874;-88
2023/01/30 04:40:20;;;;;;;43.17;27.58;;;;;;;5.87;100.00;101603.97;5262187;28;20013;-88
2023/01/30 04:42:51;;;;;;;42.92;30.30;;;;;;;5.86;100.00;101594.34;5277983;28;20075;-88
2023/01/30 04:45:22;;;;;;;44.88;29.02;;;;;;;5.87;100.00;101601.31;5260596;28;20078;-89
2023/01/30 04:47:54;;;;;;;38.63;28.00;;;;;;;5.93;100.00;101600.97;5280087;28;20531;-88
2023/01/30 04:50:25;;;;;;;41.95;26.58;;;;;;;5.92;100.00;101590.47;5267420;28;20052;-89
2023/01/30 04:52:56;;;;;;;40.67;25.88;;;;;;;5.94;100.00;101593.84;5283450;28;20021;-88
2023/01/30 04:55:28;;;;;;;34.63;23.92;;;;;;;5.98;100.00;101613.97;5267518;28;21480;-89
2023/01/30 04:57:59;;;;;;;40.10;23.23;;;;;;;6.01;100.00;101613.75;5276669;28;20032;-87
2023/01/30 05:00:31;;;;;;;32.63;22.20;;;;;;;6.03;100.00;101611.84;5254259;28;20033;-88
2023/01/30 05:03:02;;;;;;;41.17;24.10;;;;;;;6.09;100.00;101597.41;5282220;28;20579;-89
2023/01/30 05:05:34;;;;;;;25.15;19.73;;;;;;;6.11;100.00;101599.00;5290280;28;20063;-88
2023/01/30 05:08:06;;;;;;;33.65;21.15;;;;;;;6.15;100.00;101616.41;5279767;28;20104;-88
2023/01/30 05:10:37;;;;;;;30.38;19.13;;;;;;;6.17;100.00;101617.19;5281154;28;20037;-88
2023/01/30 05:13:08;;;;;;;30.35;17.55;;;;;;;6.19;100.00;101619.75;5264010;28;20129;-88
2023/01/30 05:15:39;;;;;;;26.58;16.48;;;;;;;6.21;100.00;101620.50;5260505;28;20044;-88
2023/01/30 05:18:11;;;;;;;25.92;17.27;;;;;;;6.21;100.00;101616.03;5269346;28;20033;-88
2023/01/30 05:20:42;;;;;;;31.27;17.05;;;;;;;6.21;100.00;101605.44;5281734;28;20051;-88
2023/01/30 05:23:13;;;;;;;27.05;15.90;;;;;;;6.21;100.00;101612.53;5259793;28;20037;-87
2023/01/30 05:25:45;;;;;;;25.85;15.70;;;;;;;6.30;100.00;101604.00;5272204;28;20028;-88
2023/01/30 05:28:16;;;;;;;33.00;15.25;;;;;;;6.31;100.00;101610.16;5281492;28;20097;-89
2023/01/30 05:30:47;;;;;;;26.15;13.10;;;;;;;6.30;100.00;101611.13;5279857;28;20065;-88
2023/01/30 05:33:19;;;;;;;25.23;12.98;;;;;;;6.29;100.00;101606.75;5276897;28;20223;-89
2023/01/30 05:35:50;;;;;;;24.20;11.48;;;;;;;6.29;100.00;101601.47;5259029;28;20051;-87
2023/01/30 05:38:22;;;;;;;25.75;11.27;;;;;;;6.26;100.00;101602.50;5276199;28;20025;-88
2023/01/30 05:41:04;;;;;;;22.50;9.93;;;;;;;6.36;100.00;101611.56;5273249;28;20017;-89
2023/01/30 05:43:36;;;;;;;20.63;9.80;;;;;;;6.34;100.00;101605.50;5268202;28;20139;-89
2023/01/30 05:46:12;;;;;;;29.55;10.45;;;;;;;6.33;100.00;101603.81;5255295;28;20072;-89
2023/01/30 05:48:44;;;;;;;22.65;10.18;;;;;;;6.35;100.00;101604.56;5271516;28;20103;-89
2023/01/30 05:51:21;;;;;;;25.58;10.18;;;;;;;6.34;100.00;101604.66;5272853;28;20065;-89
2023/01/30 05:53:52;;;;;;;22.65;10.77;;;;;;;6.37;100.00;101601.84;5274416;28;20044;-89
2023/01/30 05:56:23;;;;;;;20.45;9.40;;;;;;;6.34;100.00;101586.97;5258492;28;20025;-89
2023/01/30 05:58:55;;;;;;;23.08;9.65;;;;;;;6.36;100.00;101608.91;5252181;28;20024;-89
2023/01/30 06:01:28;;;;;;;28.77;10.30;;;;;;;6.43;100.00;101614.69;5272624;28;20029;-89
2023/01/30 06:03:59;;;;;;;18.83;9.27;;;;;;;6.41;100.00;101632.47;5273675;28;20028;-89
2023/01/30 06:06:30;;;;;;;26.38;9.65;;;;;;;6.40;100.00;101622.84;5280908;28;20088;-89
2023/01/30 06:09:03;;;;;;;19.80;8.85;;;;;;;6.45;100.00;101626.03;5273448;28;20418;-88
2023/01/30 06:11:34;;;;;;;20.88;7.93;;;;;;;6.47;100.00;101633.91;5277201;28;20025;-87
2023/01/30 06:14:06;;;;;;;23.20;7.47;;;;;;;6.39;100.00;101621.97;5282059;28;20392;-89
2023/01/30 06:16:37;;;;;;;23.85;8.10;;;;;;;6.41;100.00;101627.19;5261170;28;20025;-86
2023/01/30 06:19:08;;;;;;;21.10;6.93;;;;;;;6.39;100.00;101626.44;5272882;28;20377;-88
2023/01/30 06:21:40;;;;;;;15.25;6.80;;;;;;;6.41;100.00;101632.47;5275396;28;20106;-87
2023/01/30 06:24:11;;;;;;;20.23;6.07;;;;;;;6.45;100.00;101644.59;5274716;28;20065;-88
2023/01/30 06:26:42;;;;;;;23.08;6.53;;;;;;;6.42;100.00;101628.91;5274731;28;20454;-87
2023/01/30 06:29:14;;;;;;;12.43;5.20;;;;;;;6.33;100.00;101638.28;5277804;28;20567;-87
2023/01/30 06:31:45;;;;;;;15.98;6.18;;;;;;;6.30;100.00;101645.56;5276411;28;20025;-87
2023/01/30 06:34:17;;;;;;;22.63;5.88;;;;;;;6.28;100.00;101647.47;5269062;28;20040;-87
2023/01/30 06:36:48;;;;;;;21.08;5.95;;;;;;;6.18;100.00;101669.19;5271490;28;20374;-86
2023/01/30 06:39:19;;;;;;;17.30;5.32;;;;;;;6.12;100.00;101674.00;5260869;28;20025;-87
2023/01/30 06:41:51;;;;;;;16.40;4.95;;;;;;;5.94;100.00;101676.78;5281672;28;20036;-87
2023/01/30 06:44:22;;;;;;;18.38;4.85;;;;;;;5.84;100.00;101665.06;5275094;28;20047;-86
2023/01/30 06:46:54;;;;;;;14.30;4.68;;;;;;;5.73;100.00;101652.44;5274375;28;20040;-87
2023/01/30 06:49:25;;;;;;;18.17;5.68;;;;;;;5.66;100.00;101661.69;5275171;28;20037;-87
2023/01/30 06:51:56;;;;;;;16.48;4.97;;;;;;;5.68;100.00;101679.22;5276024;28;20045;-86
2023/01/30 06:54:28;;;;;;;17.08;4.30;;;;;;;5.61;100.00;101674.34;5259263;28;20032;-87
2023/01/30 06:56:59;;;;;;;18.10;4.65;;;;;;;5.54;100.00;101684.47;5289653;28;20044;-86
2023/01/30 06:59:30;;;;;;;19.63;4.38;;;;;;;5.39;100.00;101664.19;5302989;28;20080;-87
2023/01/30 07:02:01;;;;;;;16.08;3.72;;;;;;;5.39;100.00;101659.72;5298773;28;20021;-86
2023/01/30 07:04:33;;;;;;;18.50;4.00;;;;;;;5.34;100.00;101645.06;5279359;28;20045;-87
2023/01/30 07:07:04;;;;;;;13.32;3.67;;;;;;;5.28;100.00;101641.84;5264996;28;20053;-86
2023/01/30 07:09:36;;;;;;;18.65;3.55;;;;;;;5.25;100.00;101652.59;5279163;28;20081;-87
2023/01/30 07:12:07;;;;;;;23.60;4.30;;;;;;;5.18;100.00;101653.88;5276969;28;20111;-87
2023/01/30 07:14:38;;;;;;;16.50;4.07;;;;;;;5.11;100.00;101660.47;5274861;28;20064;-87
2023/01/30 07:17:09;;;;;;;14.00;3.35;;;;;;;5.09;100.00;101665.84;5283923;28;20025;-87
2023/01/30 07:19:41;;;;;;;19.33;3.83;;;;;;;5.09;100.00;101665.84;5287224;28;20052;-87
2023/01/30 07:22:13;;;;;;;15.23;3.50;;;;;;;5.06;100.00;101663.38;5272740;28;20099;-88
2023/01/30 07:24:45;;;;;;;18.83;3.42;;;;;;;5.16;100.00;101670.78;5290831;28;20457;-89
2023/01/30 07:27:16;;;;;;;17.38;3.30;;;;;;;5.03;100.00;101671.50;5285439;28;20025;-88
2023/01/30 07:29:47;;;;;;;16.42;3.28;;;;;;;4.98;100.00;101676.19;5267654;28;20095;-87
2023/01/30 07:32:19;;;;;;;20.25;3.28;;;;;;;4.87;100.00;101674.16;5266909;28;20125;-87
2023/01/30 07:34:50;;;;;;;16.77;3.58;;;;;;;4.86;100.00;101677.72;5284906;28;20343;-88
2023/01/30 07:37:22;;;;;;;17.25;4.45;;;;;;;4.85;100.00;101691.00;5285411;28;20381;-87
2023/01/30 07:39:53;;;;;;;15.50;3.70;;;;;;;4.84;100.00;101690.16;5285076;28;20024;-87
2023/01/30 07:42:24;;;;;;;16.20;4.05;;;;;;;4.83;100.00;101692.88;5285094;28;20103;-87
2023/01/30 07:44:56;;;;;;;17.17;3.15;;;;;;;4.93;100.00;101694.94;5281905;28;20057;-87
2023/01/30 07:47:27;;;;;;;18.33;3.40;;;;;;;4.94;100.00;101698.41;5284065;28;20393;-87
2023/01/30 07:49:58;;;;;;;19.02;3.45;;;;;;;4.90;100.00;101689.81;5265665;28;20021;-86
2023/01/30 07:52:30;;;;;;;22.20;4.07;;;;;;;4.90;100.00;101699.53;5266028;28;20206;-87
2023/01/30 07:55:01;;;;;;;21.70;3.67;;;;;;;4.87;100.00;101697.94;5267174;28;20110;-87
2023/01/30 07:57:32;;;;;;;23.20;5.18;;;;;;;4.86;100.00;101692.72;5285056;28;20067;-86
2023/01/30 08:00:04;;;;;;;18.67;3.75;;;;;;;4.87;100.00;101699.69;5283667;28;20022;-87
2023/01/30 08:02:36;;;;;;;22.65;3.70;;;;;;;4.93;100.00;101702.03;5285076;28;20040;-87
2023/01/30 08:05:07;;;;;;;24.50;3.88;;;;;;;5.54;100.00;101708.28;5285540;28;20029;-88
2023/01/30 08:07:39;;;;;;;22.70;4.50;;;;;;;5.87;100.00;101708.09;5285533;28;20447;-87
2023/01/30 08:10:10;;;;;;;18.80;4.07;;;;;;;6.19;100.00;101701.88;5283313;28;20031;-87
2023/01/30 08:12:42;;;;;;;17.52;3.45;;;;;;;6.58;100.00;101705.66;5281727;28;20438;-87
2023/01/30 08:15:13;;;;;;;20.95;3.70;;;;;;;6.79;100.00;101711.41;5262705;28;20029;-87
2023/01/30 08:17:52;;;;;;;23.27;3.97;;;;;;;7.17;100.00;101724.00;5284352;28;20083;-87
2023/01/30 08:20:25;;;;;;;20.83;4.28;;;;;;;7.26;100.00;101710.19;5282188;28;20111;-87
2023/01/30 08:22:58;;;;;;;13.90;3.40;;;;;;;7.35;100.00;101716.69;5284700;28;20029;-86
2023/01/30 08:25:29;;;;;;;22.20;3.78;;;;;;;7.36;100.00;101721.91;5280625;28;20029;-86
2023/01/30 08:28:01;;;;;;;23.52;3.63;;;;;;;7.34;100.00;101723.78;5283183;28;20082;-88
2023/01/30 08:30:32;;;;;;;22.25;3.47;;;;;;;7.11;100.00;101724.44;5282913;28;20028;-88
2023/01/30 08:33:04;;;;;;;19.48;3.78;;;;;;;6.73;100.00;101725.03;5283602;28;20020;-87
2023/01/30 08:35:35;;;;;;;19.48;4.32;;;;;;;6.56;100.00;101728.75;5284573;28;20025;-87
2023/01/30 08:38:07;;;;;;;17.48;3.72;;;;;;;6.28;100.00;101729.59;5283922;28;20025;-87
2023/01/30 08:40:39;;;;;;;15.63;3.33;;;;;;;6.15;100.00;101722.34;5282582;28;20021;-87
2023/01/30 08:43:10;;;;;;;19.85;3.83;;;;;;;6.03;100.00;101737.22;5282285;28;20478;-87
2023/01/30 08:45:42;;;;;;;19.45;3.88;;;;;;;5.97;100.00;101744.66;5284610;28;20021;-88
2023/01/30 08:48:13;;;;;;;18.80;3.53;;;;;;;5.88;100.00;101748.66;5286453;28;20024;-88
2023/01/30 08:50:44;;;;;;;17.58;3.90;;;;;;;5.91;100.00;101739.69;5287726;28;20478;-87
2023/01/30 08:53:16;;;;;;;23.60;4.75;;;;;;;5.87;100.00;101741.66;5274568;28;20017;-87
2023/01/30 08:55:51;;;;;;;13.77;3.38;;;;;;;5.87;100.00;101746.94;5244701;28;20026;-87
2023/01/30 08:58:22;;;;;;;20.25;3.80;;;;;;;5.87;100.00;101741.66;5263994;28;20017;-88
2023/01/30 09:00:53;;;;;;;14.60;3.05;;;;;;;5.93;100.00;101749.25;5283357;28;20032;-87
2023/01/30 09:03:25;;;;;;;22.98;4.28;;;;;;;5.98;100.00;101754.31;5282696;28;20481;-87
2023/01/30 09:05:56;;;;;;;21.75;3.85;;;;;;;6.01;100.00;101765.59;5283614;28;20051;-88
2023/01/30 09:08:27;;;;;;;16.17;2.72;;;;;;;6.01;100.00;101759.41;5283672;28;20025;-88
2023/01/30 09:11:01;;;;;;;14.65;2.67;;;;;;;6.16;100.00;101781.50;5265514;28;20491;-88
2023/01/30 09:13:33;;;;;;;22.00;3.60;;;;;;;6.13;100.00;101779.88;5283915;28;20520;-88
2023/01/30 09:16:05;;;;;;;18.10;3.38;;;;;;;6.17;100.00;101772.59;5277341;28;20084;-86
2023/01/30 09:18:39;;;;;;;18.25;3.63;;;;;;;6.22;100.00;101786.44;5277499;28;20060;-86
2023/01/30 09:21:11;;;;;;;16.73;3.17;;;;;;;6.23;100.00;101772.25;5297037;28;20009;-88
2023/01/30 09:23:43;;;;;;;21.65;3.33;;;;;;;6.27;100.00;101778.22;5284628;28;20033;-87
2023/01/30 09:26:14;;;;;;;20.17;3.83;;;;;;;6.34;100.00;101782.22;5284772;28;20040;-87
2023/01/30 09:28:45;;;;;;;19.30;3.72;;;;;;;6.39;100.00;101788.09;5284434;28;20032;-87
2023/01/30 09:31:17;;;;;;;18.63;3.17;;;;;;;6.42;100.00;101791.41;5290806;28;20047;-87
2023/01/30 09:33:48;;;;;;;21.73;4.10;;;;;;;6.51;100.00;101786.50;5301001;28;20037;-87
2023/01/30 09:36:19;;;;;;;17.05;4.15;;;;;;;6.53;100.00;101781.97;5311161;28;20028;-88
2023/01/30 09:38:51;;;;;;;25.70;5.28;;;;;;;6.59;100.00;101801.00;5292199;28;20052;-87
2023/01/30 09:41:49;;;;;;;17.88;3.78;;;;;;;6.84;100.00;101793.31;5309960;28;20064;-87
2023/01/30 09:44:54;;;;;;;18.95;3.22;;;;;;;7.07;100.00;101810.47;5292178;28;20057;-88
2023/01/30 09:47:54;;;;;;;17.80;3.08;;;;;;;7.45;100.00;101801.88;5283301;28;20064;-87
2023/01/30 09:51:04;;;;;;;16.58;3.17;;;;;;;7.58;100.00;101805.44;5283508;28;20423;-87
2023/01/30 09:54:03;;;;;;;22.08;4.10;;;;;;;7.56;100.00;101797.56;5281974;28;20029;-88
2023/01/30 09:56:34;;;;;;;20.13;3.85;;;;;;;7.54;100.00;101804.78;5282849;28;20307;-88
2023/01/30 09:59:06;;;;;;;14.38;2.65;;;;;;;7.63;100.00;101813.13;5283220;28;20100;-88
2023/01/30 10:02:08;;;;;;;15.98;3.08;;;;;;;7.79;100.00;101821.78;5283754;28;20021;-88
2023/01/30 10:04:46;;;;;;;16.60;3.90;;;;;;;7.75;100.00;101815.81;5263512;28;20044;-86
2023/01/30 10:07:51;;;;;;;25.00;4.03;;;;;;;8.06;100.00;101821.75;5243752;28;20071;-86
2023/01/30 10:10:48;;;;;;;15.07;3.20;;;;;;;8.30;100.00;101819.25;5262709;28;20524;-87
2023/01/30 10:13:35;;;;;;;16.45;2.85;;;;;;;8.20;100.00;101823.47;5268836;28;20029;-87
2023/01/30 10:16:19;;;;;;;16.60;2.67;;;;;;;8.37;100.00;101832.16;5264875;28;20398;-87
2023/01/30 10:19:09;;;;;;;23.80;4.63;;;;;;;8.53;100.00;101814.22;5282466;28;20029;-88
2023/01/30 10:21:57;;;;;;;23.45;3.67;;;;;;;8.42;100.00;101833.56;5282253;28;20036;-87
2023/01/30 10:24:36;;;;;;;14.55;2.97;;;;;;;8.48;100.00;101832.28;5282091;28;20489;-88
2023/01/30 10:27:15;;;;;;;12.30;2.53;;;;;;;8.52;100.00;101837.31;5282039;28;20056;-88
2023/01/30 10:29:52;;;;;;;15.43;3.47;;;;;;;8.47;100.00;101838.59;5281581;28;20106;-88
2023/01/30 10:32:30;;;;;;;21.55;2.88;;;;;;;8.46;100.00;101829.72;5283665;28;20367;-87
2023/01/30 10:35:41;;;;;;;16.00;2.95;;;;;;;8.55;100.00;101840.72;5282621;28;20017;-87
2023/01/30 10:38:25;;;;;;;17.55;3.63;;;;;;;8.49;100.00;101840.16;5282211;28;20047;-88
2023/01/30 10:41:14;;;;;;;16.52;3.20;;;;;;;8.65;100.00;101844.44;5282149;28;20029;-87
2023/01/30 10:43:57;;;;;;;16.48;2.83;;;;;;;8.64;100.00;101840.94;5280954;28;20413;-87
2023/01/30 10:46:53;;;;;;;14.90;3.50;;;;;;;8.58;100.00;101848.47;5281682;28;20075;-87
2023/01/30 10:49:36;;;;;;;20.40;3.20;;;;;;;8.49;100.00;101845.47;5283534;28;20467;-87
2023/01/30 10:52:23;;;;;;;18.27;2.90;;;;;;;8.36;100.00;101857.03;5285282;28;20386;-87
2023/01/30 10:55:26;;;;;;;17.30;3.92;;;;;;;8.27;100.00;101864.66;5271462;28;20070;-88
2023/01/30 10:58:15;;;;;;;14.57;3.15;;;;;;;8.03;100.00;101863.63;5272364;28;20025;-87
2023/01/30 11:00:57;;;;;;;18.38;2.83;;;;;;;7.88;100.00;101850.38;5269977;28;20132;-87
2023/01/30 11:03:38;;;;;;;15.77;2.65;;;;;;;7.82;100.00;101852.59;5278489;28;20104;-87
2023/01/30 11:06:25;;;;;;;18.00;3.55;;;;;;;7.77;100.00;101863.53;5286040;28;20499;-87
2023/01/30 11:08:56;;;;;;;14.02;3.13;;;;;;;7.67;100.00;101859.75;5283313;28;20072;-86
2023/01/30 11:11:34;;;;;;;15.18;2.80;;;;;;;7.63;100.00;101869.72;5268581;28;20056;-87
2023/01/30 11:14:08;;;;;;;20.67;3.13;;;;;;;7.55;100.00;101867.53;5264298;28;20095;-87
2023/01/30 11:16:44;;;;;;;16.35;2.83;;;;;;;7.53;100.00;101865.94;5264445;28;20052;-88
2023/01/30 11:19:23;;;;;;;18.80;3.45;;;;;;;7.52;100.00;101864.22;5269803;28;20032;-87
2023/01/30 11:22:00;;;;;;;13.38;2.45;;;;;;;7.56;100.00;101866.59;5285467;28;20025;-87
2023/01/30 11:24:39;;;;;;;16.92;3.08;;;;;;;7.70;100.00;101860.41;5285546;28;20350;-88
2023/01/30 11:27:17;;;;;;;15.07;3.22;;;;;;;7.75;100.00;101868.94;5267360;28;20025;-87
2023/01/30 11:29:51;;;;;;;15.70;3.45;;;;;;;8.04;100.00;101858.22;5279250;28;20025;-87
2023/01/30 11:32:27;;;;;;;21.48;3.85;;;;;;;8.30;100.00;101859.13;5274915;28;20045;-87
2023/01/30 11:35:23;;;;;;;14.07;2.50;;;;;;;8.29;100.00;101852.13;5265581;28;20462;-87
2023/01/30 11:38:10;;;;;;;14.82;3.13;;;;;;;8.27;100.00;101869.13;5278992;28;20095;-88
2023/01/30 11:40:42;;;;;;;12.38;2.85;;;;;;;8.20;100.00;101866.00;5283989;28;20490;-88
2023/01/30 11:43:13;;;;;;;16.50;3.45;;;;;;;8.19;100.00;101866.97;5282228;28;20018;-87
2023/01/30 11:45:49;;;;;;;16.52;3.50;;;;;;;8.12;100.00;101855.91;5274458;28;20087;-87
2023/01/30 11:48:26;;;;;;;15.43;2.92;;;;;;;8.16;100.00;101869.84;5278035;28;20310;-87
2023/01/30 11:51:03;;;;;;;17.25;3.47;;;;;;;8.11;100.00;101877.25;5278969;28;20029;-87
2023/01/30 11:53:43;;;;;;;13.27;3.08;;;;;;;8.03;100.00;101874.25;5274723;28;20402;-87
2023/01/30 11:56:24;;;;;;;13.77;3.60;;;;;;;8.01;100.00;101876.16;5282993;28;20044;-88
2023/01/30 11:59:02;;;;;;;16.80;3.35;;;;;;;8.02;100.00;101875.22;5282478;28;20075;-86
2023/01/30 12:01:35;;;;;;;16.05;3.38;;;;;;;7.98;100.00;101882.53;5278792;28;20080;-87